createdAt,value
2022-10-05T07:07:14.762Z,9.28
2022-10-05T07:10:11.998Z,9.35
2022-10-05T07:13:06.818Z,9.62
2022-10-05T07:15:57.302Z,9.84
2022-10-05T07:18:59.353Z,9.98
2022-10-05T07:21:35.841Z,10.17
2022-10-05T07:24:21.743Z,10.22
2022-10-05T07:27:07.779Z,10.11
2022-10-05T07:29:39.767Z,10.01
2022-10-05T07:32:16.643Z,9.78
2022-10-05T07:35:32.323Z,9.78
2022-10-05T07:38:11.553Z,9.66
2022-10-05T07:41:03.295Z,9.82
2022-10-05T07:44:01.951Z,9.91
2022-10-05T07:47:13.672Z,9.97
2022-10-05T07:49:51.374Z,10.10
2022-10-05T07:52:32.375Z,10.13
2022-10-05T07:55:22.440Z,10.03
2022-10-05T07:58:34.730Z,9.88
2022-10-05T08:01:22.825Z,10.10
2022-10-05T08:04:01.100Z,10.09
2022-10-05T08:06:38.740Z,10.11
2022-10-05T08:09:33.330Z,10.31
2022-10-05T08:12:44.874Z,10.43
2022-10-05T08:15:18.045Z,10.44
2022-10-05T08:18:02.620Z,10.49
2022-10-05T08:20:35.485Z,10.94
2022-10-05T08:23:16.046Z,11.07
2022-10-05T08:25:55.187Z,11.10
2022-10-05T08:28:37.703Z,11.05
2022-10-05T08:31:07.839Z,11.00
2022-10-05T08:33:58.743Z,10.85
2022-10-05T08:36:43.568Z,10.81
2022-10-05T08:39:18.249Z,10.72
2022-10-05T08:42:39.608Z,10.63
2022-10-05T08:45:51.065Z,10.74
2022-10-05T08:48:20.871Z,10.53
2022-10-05T08:51:15.520Z,10.30
2022-10-05T08:54:17.115Z,10.27
2022-10-05T08:57:09.853Z,10.17
2022-10-05T08:59:48.748Z,10.08
2022-10-05T09:02:32.677Z,10.35
2022-10-05T09:05:28.693Z,10.31
2022-10-05T09:08:09.890Z,10.17
2022-10-05T09:11:14.641Z,10.34
2022-10-05T09:14:07.746Z,10.35
2022-10-05T09:16:48.081Z,10.44
2022-10-05T09:19:50.489Z,10.49
2022-10-05T09:22:40.656Z,10.61
2022-10-05T09:25:32.310Z,10.65
2022-10-05T09:28:02.431Z,10.58
2022-10-05T09:30:42.785Z,10.39
2022-10-05T09:33:40.996Z,10.51
2022-10-05T09:36:15.636Z,10.65
2022-10-05T09:38:57.477Z,10.57
2022-10-05T09:41:44.095Z,10.53
2022-10-05T09:44:27.558Z,10.44
2022-10-05T09:47:28.866Z,10.57
2022-10-05T09:50:04.766Z,10.65
2022-10-05T09:52:53.160Z,10.78
2022-10-05T09:55:57.638Z,10.95
2022-10-05T09:58:56.979Z,11.03
2022-10-05T10:01:34.322Z,10.67
2022-10-05T10:04:26.108Z,10.77
2022-10-05T10:07:19.108Z,10.71
2022-10-05T10:10:20.099Z,10.75
2022-10-05T10:12:47.247Z,10.40
2022-10-05T10:15:29.653Z,10.30
2022-10-05T10:18:18.166Z,10.42
2022-10-05T10:21:09.850Z,10.49
2022-10-05T10:24:06.790Z,10.71
2022-10-05T10:26:58.410Z,10.64
2022-10-05T10:29:53.276Z,10.71
2022-10-05T10:32:23.329Z,10.59
2022-10-05T10:35:33.247Z,10.66
2022-10-05T10:38:20.305Z,10.65
2022-10-05T10:41:34.786Z,10.69
2022-10-05T10:44:42.057Z,10.62
2022-10-05T10:47:27.826Z,10.56
2022-10-05T10:50:06.771Z,10.53
2022-10-05T10:52:34.125Z,10.61
2022-10-05T10:55:31.008Z,10.50
2022-10-05T10:58:22.683Z,10.39
2022-10-05T11:01:06.129Z,10.41
2022-10-05T11:03:44.834Z,10.48
2022-10-05T11:06:12.049Z,10.57
2022-10-05T11:08:55.412Z,10.54
2022-10-05T11:11:22.818Z,11.00
2022-10-05T11:14:03.121Z,11.19
2022-10-05T11:16:45.655Z,11.43
2022-10-05T11:19:35.233Z,11.62
2022-10-05T11:22:31.470Z,11.62
2022-10-05T11:25:17.406Z,11.08
2022-10-05T11:28:09.777Z,11.03
2022-10-05T11:31:20.622Z,10.60
2022-10-05T11:33:48.318Z,10.65
2022-10-05T11:36:54.060Z,10.66
2022-10-05T11:39:58.890Z,10.78
2022-10-05T11:42:39.741Z,10.95
2022-10-05T11:45:06.766Z,10.92
2022-10-05T11:47:55.563Z,10.58
2022-10-05T11:50:32.592Z,10.45
2022-10-05T11:53:17.937Z,10.42
2022-10-05T11:56:05.016Z,10.21
2022-10-05T11:58:37.848Z,10.19
2022-10-05T12:01:05.092Z,10.24
2022-10-05T12:03:43.477Z,10.23
2022-10-05T12:06:23.674Z,10.33
2022-10-05T12:09:17.984Z,10.42
2022-10-05T12:12:07.925Z,10.32
2022-10-05T12:14:54.297Z,10.29
2022-10-05T12:17:27.389Z,10.28
2022-10-05T12:20:07.126Z,10.21
2022-10-05T12:22:40.721Z,10.02
2022-10-05T12:25:25.715Z,10.28
2022-10-05T12:27:57.330Z,10.38
2022-10-05T12:30:59.141Z,10.76
2022-10-05T12:33:41.420Z,10.85
2022-10-05T12:36:59.655Z,10.92
2022-10-05T12:39:42.009Z,10.76
2022-10-05T12:42:40.819Z,10.60
2022-10-05T12:45:43.582Z,10.55
2022-10-05T12:48:19.037Z,10.71
2022-10-05T12:50:53.747Z,10.78
2022-10-05T12:53:23.664Z,10.84
2022-10-05T12:56:04.955Z,10.80
2022-10-05T12:58:46.943Z,10.58
2022-10-05T13:01:39.332Z,10.43
2022-10-05T13:04:25.054Z,10.19
2022-10-05T13:07:10.051Z,10.25
2022-10-05T13:10:01.956Z,10.42
2022-10-05T13:12:48.720Z,10.53
2022-10-05T13:15:18.458Z,10.57
2022-10-05T13:18:09.631Z,10.73
2022-10-05T13:21:07.047Z,10.68
2022-10-05T13:23:34.938Z,10.71
2022-10-05T13:26:28.337Z,10.70
2022-10-05T13:29:01.278Z,10.73
2022-10-05T13:31:43.260Z,10.51
2022-10-05T13:34:57.364Z,10.03
2022-10-05T13:37:38.298Z,9.96
2022-10-05T13:40:21.848Z,9.94
2022-10-05T13:43:02.098Z,9.86
2022-10-05T13:45:46.328Z,9.84
2022-10-05T13:48:58.426Z,9.68
2022-10-05T13:51:37.678Z,9.63
2022-10-05T13:54:15.684Z,9.73
2022-10-05T13:56:54.927Z,9.77
2022-10-05T13:59:38.545Z,9.61
2022-10-05T14:02:09.839Z,9.55
2022-10-05T14:04:47.688Z,9.52
2022-10-05T14:07:24.288Z,9.71
2022-10-05T14:09:51.698Z,9.64
2022-10-05T14:12:26.562Z,9.71
2022-10-05T14:14:57.234Z,9.79
2022-10-05T14:17:33.552Z,9.77
2022-10-05T14:20:03.499Z,9.80
2022-10-05T14:22:41.669Z,9.73
2022-10-05T14:25:09.236Z,9.71
2022-10-05T14:28:03.989Z,9.86
2022-10-05T14:30:33.086Z,9.85
2022-10-05T14:33:09.090Z,9.88
2022-10-05T14:35:51.559Z,9.86
2022-10-05T14:38:28.943Z,9.85
2022-10-05T14:41:19.720Z,9.92
2022-10-05T14:44:02.372Z,9.88
2022-10-05T14:46:34.244Z,9.79
2022-10-05T14:49:21.750Z,9.79
2022-10-05T14:51:50.841Z,9.61
2022-10-05T14:54:44.789Z,9.49
2022-10-05T14:57:40.849Z,9.55
2022-10-05T15:00:16.677Z,9.54
2022-10-05T15:03:03.744Z,9.55
2022-10-05T15:05:34.042Z,9.61
2022-10-05T15:08:11.989Z,9.56
2022-10-05T15:10:42.647Z,9.56
2022-10-05T15:13:17.656Z,9.55
2022-10-05T15:15:54.675Z,9.45
2022-10-05T15:18:43.223Z,9.38
2022-10-05T15:21:26.827Z,9.23
2022-10-05T15:24:09.532Z,9.33
2022-10-05T15:27:04.130Z,9.21
2022-10-05T15:29:58.450Z,9.22
2022-10-05T15:32:42.218Z,9.18
2022-10-05T15:35:09.501Z,9.16
2022-10-05T15:37:47.680Z,9.17
2022-10-05T15:40:28.781Z,9.26
2022-10-05T15:43:03.614Z,9.16
2022-10-05T15:45:37.908Z,9.23
2022-10-05T15:48:18.192Z,9.06
2022-10-05T15:51:07.502Z,9.01
2022-10-05T15:53:42.857Z,9.02
2022-10-05T15:56:45.384Z,9.03
2022-10-05T15:59:42.286Z,8.79
2022-10-05T16:02:24.880Z,8.97
2022-10-05T16:05:07.776Z,8.99
2022-10-05T16:08:13.108Z,8.70
2022-10-05T16:10:46.175Z,8.91
2022-10-05T16:13:59.990Z,8.96
2022-10-05T16:16:43.597Z,8.97
2022-10-05T16:19:34.580Z,9.10
2022-10-05T16:22:19.496Z,8.94
2022-10-05T16:25:05.337Z,9.00
2022-10-05T16:27:56.041Z,8.87
2022-10-05T16:30:24.871Z,8.83
2022-10-05T16:33:10.396Z,9.00
2022-10-05T16:35:45.304Z,9.02
2022-10-05T16:38:38.916Z,9.07
2022-10-05T16:41:26.520Z,9.04
2022-10-05T16:44:21.208Z,9.08
2022-10-05T16:46:55.303Z,9.03
2022-10-05T16:49:47.798Z,9.06
2022-10-05T16:52:23.766Z,9.01
2022-10-05T16:55:04.658Z,9.04
2022-10-05T16:57:35.658Z,8.94
2022-10-05T17:00:10.845Z,8.88
2022-10-05T17:03:13.114Z,8.77
2022-10-05T17:05:49.046Z,8.93
2022-10-05T17:08:49.556Z,9.04
2022-10-05T17:11:45.780Z,8.92
2022-10-05T17:14:40.804Z,9.06
2022-10-05T17:17:44.969Z,8.97
2022-10-05T17:20:44.752Z,8.88
2022-10-05T17:23:29.628Z,8.85
2022-10-05T17:26:09.871Z,8.89
2022-10-05T17:28:45.135Z,8.84
2022-10-05T17:31:19.159Z,8.84
2022-10-05T17:34:17.567Z,8.96
2022-10-05T17:36:57.181Z,8.84
2022-10-05T17:39:47.166Z,8.74
2022-10-05T17:42:40.481Z,8.79
2022-10-05T17:45:12.449Z,8.77
2022-10-05T17:48:10.603Z,8.75
2022-10-05T17:51:02.322Z,8.80
2022-10-05T17:53:55.192Z,8.84
2022-10-05T17:56:23.930Z,8.78
2022-10-05T17:58:54.677Z,8.83
2022-10-05T18:02:11.628Z,8.86
2022-10-05T18:04:42.365Z,8.95
2022-10-05T18:07:20.223Z,8.75
2022-10-05T18:10:17.006Z,8.73
2022-10-05T18:12:59.571Z,8.88
2022-10-05T18:15:27.014Z,8.83
2022-10-05T18:17:57.798Z,8.95
2022-10-05T18:20:26.745Z,9.06
2022-10-05T18:23:23.993Z,8.77
2022-10-05T18:26:34.545Z,9.01
2022-10-05T18:29:51.894Z,8.95
2022-10-05T18:32:57.978Z,8.99
2022-10-05T18:35:33.226Z,8.93
2022-10-05T18:38:12.436Z,8.99
2022-10-05T18:40:44.880Z,9.01
2022-10-05T18:43:44.058Z,9.00
2022-10-05T18:46:48.442Z,9.01
2022-10-05T18:49:34.694Z,8.85
2022-10-05T18:52:18.629Z,8.84
2022-10-05T18:55:09.181Z,8.85
2022-10-05T18:57:47.774Z,8.82
2022-10-05T19:00:21.531Z,8.76
2022-10-05T19:02:57.442Z,8.76
2022-10-05T19:05:48.734Z,8.79
2022-10-05T19:08:31.154Z,8.74
2022-10-05T19:11:18.209Z,8.73
2022-10-05T19:13:55.923Z,8.70
2022-10-05T19:17:04.878Z,8.54
2022-10-05T19:20:09.538Z,8.55
2022-10-05T19:23:22.511Z,8.46
2022-10-05T19:26:03.348Z,8.54
2022-10-05T19:28:31.345Z,8.65
2022-10-05T19:31:13.876Z,8.78
2022-10-05T19:33:59.432Z,8.79
2022-10-05T19:36:35.616Z,8.85
2022-10-05T19:39:30.558Z,8.84
2022-10-05T19:42:37.201Z,8.84
2022-10-05T19:45:26.752Z,8.91
2022-10-05T19:48:31.763Z,8.90
2022-10-05T19:51:00.684Z,8.94
2022-10-05T19:53:37.137Z,8.91
2022-10-05T19:56:20.423Z,8.71
2022-10-05T19:58:49.397Z,8.59
2022-10-05T20:01:38.554Z,8.74
2022-10-05T20:04:06.959Z,8.68
2022-10-05T20:06:34.458Z,8.87
2022-10-05T20:09:20.745Z,8.93
2022-10-05T20:11:53.167Z,8.88
2022-10-05T20:14:29.997Z,8.96
2022-10-05T20:17:35.468Z,8.97
2022-10-05T20:20:47.109Z,8.88
2022-10-05T20:23:29.417Z,8.70
2022-10-05T20:26:15.242Z,8.56
2022-10-05T20:28:43.148Z,8.59
2022-10-05T20:31:10.302Z,8.59
2022-10-05T20:33:40.257Z,8.62
2022-10-05T20:36:08.717Z,8.68
2022-10-05T20:38:40.778Z,8.73
2022-10-05T20:41:08.490Z,8.76
2022-10-05T20:43:39.014Z,8.74
2022-10-05T20:46:07.649Z,8.78
2022-10-05T20:48:36.132Z,8.75
2022-10-05T20:51:03.217Z,8.71
2022-10-05T20:53:30.234Z,8.66
2022-10-05T20:55:59.829Z,8.78
2022-10-05T20:58:27.064Z,8.81
2022-10-05T21:01:13.261Z,8.74
2022-10-05T21:03:42.048Z,8.87
2022-10-05T21:06:09.151Z,8.94
2022-10-05T21:08:39.240Z,8.87
2022-10-05T21:11:12.233Z,8.86
2022-10-05T21:13:44.864Z,8.87
2022-10-05T21:16:17.464Z,8.99
2022-10-05T21:18:47.032Z,8.96
2022-10-05T21:21:17.451Z,8.91
2022-10-05T21:23:45.552Z,8.82
2022-10-05T21:26:13.148Z,8.85
2022-10-05T21:28:41.577Z,8.84
2022-10-05T21:31:08.987Z,8.75
2022-10-05T21:33:36.531Z,8.54
2022-10-05T21:36:04.243Z,8.59
2022-10-05T21:38:31.378Z,8.69
2022-10-05T21:40:58.476Z,8.73
2022-10-05T21:43:25.994Z,8.41
2022-10-05T21:45:55.534Z,8.69
2022-10-05T21:48:23.389Z,8.67
2022-10-05T21:50:50.447Z,8.77
2022-10-05T21:53:20.705Z,8.70
2022-10-05T21:55:50.059Z,8.68
2022-10-05T21:58:19.283Z,8.69
2022-10-05T22:00:46.373Z,8.75
2022-10-05T22:03:13.526Z,8.57
2022-10-05T22:05:40.633Z,8.56
2022-10-05T22:08:07.930Z,8.69
2022-10-05T22:10:34.954Z,8.90
2022-10-05T22:13:04.213Z,8.88
2022-10-05T22:15:31.809Z,8.83
2022-10-05T22:17:59.823Z,8.53
2022-10-05T22:20:27.360Z,8.79
2022-10-05T22:22:54.503Z,8.71
2022-10-05T22:25:22.705Z,8.65
2022-10-05T22:27:50.210Z,8.73
2022-10-05T22:30:17.756Z,8.78
2022-10-05T22:32:44.837Z,8.75
2022-10-05T22:35:12.084Z,8.69
2022-10-05T22:37:39.171Z,8.67
2022-10-05T22:40:07.820Z,8.62
2022-10-05T22:42:34.913Z,8.72
2022-10-05T22:45:01.941Z,8.92
2022-10-05T22:47:29.831Z,9.02
2022-10-05T22:49:56.846Z,9.05
2022-10-05T22:52:23.927Z,8.81
2022-10-05T22:54:51.000Z,8.82
2022-10-05T22:57:18.443Z,8.85
2022-10-05T22:59:46.149Z,8.73
2022-10-05T23:02:14.159Z,8.79
2022-10-05T23:04:41.220Z,8.89
2022-10-05T23:07:08.241Z,8.94
2022-10-05T23:09:35.314Z,8.97
2022-10-05T23:12:02.379Z,9.00
2022-10-05T23:14:30.854Z,9.10
2022-10-05T23:16:57.958Z,9.10
2022-10-05T23:19:25.019Z,9.18
2022-10-05T23:21:52.082Z,9.12
2022-10-05T23:24:19.107Z,9.08
2022-10-05T23:26:46.121Z,9.00
2022-10-05T23:29:13.124Z,9.00
2022-10-05T23:31:40.147Z,8.92
2022-10-05T23:34:07.162Z,8.84
2022-10-05T23:36:34.317Z,8.81
2022-10-05T23:39:01.414Z,8.81
2022-10-05T23:41:28.868Z,8.81
2022-10-05T23:43:55.989Z,8.72
2022-10-05T23:46:23.463Z,8.81
2022-10-05T23:48:50.565Z,8.68
2022-10-05T23:51:17.924Z,8.64
2022-10-05T23:53:45.138Z,8.63
2022-10-05T23:56:13.027Z,8.76
2022-10-05T23:58:40.649Z,8.69
